Aviation Digital Data Service (ADDS)

Output produced by METARs form (1545 UTC 20 May 2018)
found at http://aviationweather.gov/adds/metars/
 
KBVI 201424Z 2014/2112 31004KT P6SM FEW010 BKN040 
     FM202100 32008KT P6SM BKN070 
     FM210700 VRB03KT 5SM BR BKN080